Skip Navigation LinksHome page > Weather > Current weather Skip Navigation Links

Current Weather

Indianapolis Intl, Indianapolis

For information only: do not use for flight planning or navigation.
Latest weather
Observation time Saturday, January 25, 2020 3:54 AM EST
Local time Saturday, January 25, 2020 4:50 AM EST
Flight conditions Instrument Meteorological Conditions
Winds
Wind direction West-Southwest (250°)
Wind speed 15 mph
Visibility 10 mi.
Sky condition
Ceiling 700 ft. overcast
Cloud layer overcast 700 ft.
Temperature 34°F
Dewpoint 33°F
Altimeter 29.87 in.Hg
Pressure change last 3 hours-0.02 in.Hg
Pressure rising more quickly
Precipitation
Drizzle ended 3:15 AM
Precipitation last hour trace
Precipitation last 3 hours trace
Derived measurements
Relative humidity 96%
Wind chill 24°F
Density altitude -743 ft.
Sea-level pressure 29.88 in.Hg
Remarks
Automated weather observing station with precipitation discriminator.
METAR KIND 250854Z 25013KT 10SM OVC007 01/01 A2987 RMK AO2 DZE15 SLP119 P0000 60000 T00110006 53006

Settings

Location code

InnerDrive.Weather 4.0.6770.0 Release CLR 4.0.30319.42000
Copyright ©2018 Inner Drive Technology. All rights reserved. Portions Copyright ©1986-2018 David Braverman.

Find weather

Site navigation


Skip Navigation Links

Place info

Page info

PayPal - The safer, easier way to pay online!

Return home.

Copyright ©2020 Inner Drive Technology. Purveyors of fine, hand-crafted computer software. Page printed 2020-01-25T09:50:26 UTC.